createdAt,value
2019-05-13T00:00:07.245Z,6.71
2019-05-13T00:01:07.391Z,6.66
2019-05-13T00:02:07.225Z,6.69
2019-05-13T00:03:07.211Z,6.69
2019-05-13T00:04:07.201Z,6.69
2019-05-13T00:05:07.213Z,6.66
2019-05-13T00:06:07.182Z,6.68
2019-05-13T00:07:07.169Z,6.66
2019-05-13T00:08:07.159Z,6.62
2019-05-13T00:09:07.149Z,6.63
2019-05-13T00:10:07.139Z,6.65
2019-05-13T00:11:07.152Z,6.63
2019-05-13T00:12:07.117Z,6.59
2019-05-13T00:13:07.106Z,6.65
2019-05-13T00:14:07.095Z,6.62
2019-05-13T00:15:07.084Z,6.53
2019-05-13T00:16:07.075Z,6.58
2019-05-13T00:17:07.086Z,6.53
2019-05-13T00:18:07.053Z,6.44
2019-05-13T00:19:07.042Z,6.50
2019-05-13T00:20:07.033Z,6.38
2019-05-13T00:21:07.021Z,6.38
2019-05-13T00:22:07.010Z,6.35
2019-05-13T00:23:07.029Z,6.35
2019-05-13T00:24:06.988Z,6.36
2019-05-13T00:25:06.982Z,6.35
2019-05-13T00:26:06.967Z,6.32
2019-05-13T00:27:06.956Z,6.32
2019-05-13T00:28:06.946Z,6.36
2019-05-13T00:29:06.963Z,6.38
2019-05-13T00:30:06.923Z,6.36
2019-05-13T00:31:06.912Z,6.33
2019-05-13T00:32:06.901Z,6.32
2019-05-13T00:33:06.891Z,6.29
2019-05-13T00:34:06.881Z,6.16
2019-05-13T00:35:06.905Z,6.19
2019-05-13T00:36:06.858Z,6.18
2019-05-13T00:37:11.166Z,6.13
2019-05-13T00:38:06.838Z,6.11
2019-05-13T00:39:06.826Z,6.09
2019-05-13T00:40:06.814Z,6.03
2019-05-13T00:41:06.829Z,6.11
2019-05-13T00:42:06.793Z,5.98
2019-05-13T00:43:06.782Z,6.00
2019-05-13T00:44:06.771Z,5.91
2019-05-13T00:45:06.778Z,5.89
2019-05-13T00:46:06.749Z,5.89
2019-05-13T00:47:06.761Z,5.86
2019-05-13T00:48:06.727Z,5.86
2019-05-13T00:49:06.716Z,5.83
2019-05-13T00:50:06.706Z,5.78
2019-05-13T00:51:06.694Z,5.81
2019-05-13T00:52:06.683Z,5.77
2019-05-13T00:53:06.700Z,5.91
2019-05-13T00:54:06.661Z,5.89
2019-05-13T00:55:09.748Z,5.77
2019-05-13T00:56:06.640Z,5.81
2019-05-13T00:57:06.629Z,5.89
2019-05-13T00:58:06.620Z,5.82
2019-05-13T00:59:06.638Z,5.74
2019-05-13T01:00:06.599Z,5.73
2019-05-13T01:01:06.588Z,5.75
2019-05-13T01:02:06.580Z,5.74
2019-05-13T01:03:06.567Z,5.74
2019-05-13T01:04:06.556Z,5.74
2019-05-13T01:05:06.571Z,5.73
2019-05-13T01:06:06.535Z,5.68
2019-05-13T01:07:06.525Z,5.70
2019-05-13T01:08:06.516Z,5.66
2019-05-13T01:09:06.507Z,5.57
2019-05-13T01:10:06.496Z,5.48
2019-05-13T01:11:06.513Z,5.57
2019-05-13T01:12:06.474Z,5.53
2019-05-13T01:13:06.463Z,5.55
2019-05-13T01:14:06.453Z,5.43
2019-05-13T01:15:06.443Z,5.56
2019-05-13T01:16:06.434Z,5.50
2019-05-13T01:17:06.459Z,5.49
2019-05-13T01:18:06.411Z,5.49
2019-05-13T01:19:06.400Z,5.48
2019-05-13T01:20:06.391Z,5.50
2019-05-13T01:21:06.379Z,5.52
2019-05-13T01:22:06.369Z,5.45
2019-05-13T01:23:06.384Z,5.43
2019-05-13T01:24:06.348Z,5.46
2019-05-13T01:25:06.341Z,5.41
2019-05-13T01:26:06.328Z,5.37
2019-05-13T01:27:06.317Z,5.28
2019-05-13T01:28:06.310Z,5.22
2019-05-13T01:29:06.319Z,5.23
2019-05-13T01:30:06.286Z,5.27
2019-05-13T01:31:06.277Z,5.20
2019-05-13T01:32:06.273Z,5.35
2019-05-13T01:33:06.259Z,5.22
2019-05-13T01:34:06.246Z,5.20
2019-05-13T01:35:06.257Z,5.20
2019-05-13T01:36:06.225Z,5.25
2019-05-13T01:37:06.212Z,5.27
2019-05-13T01:38:06.209Z,5.16
2019-05-13T01:39:06.194Z,5.19
2019-05-13T01:40:06.185Z,5.14
2019-05-13T01:41:06.194Z,5.16
2019-05-13T01:42:06.166Z,5.05
2019-05-13T01:43:06.148Z,5.19
2019-05-13T01:44:06.141Z,5.16
2019-05-13T01:45:06.127Z,5.20
2019-05-13T01:46:06.116Z,5.22
2019-05-13T01:47:06.134Z,5.25
2019-05-13T01:48:07.606Z,5.27
2019-05-13T01:49:06.090Z,5.23
2019-05-13T01:50:06.074Z,5.23
2019-05-13T01:51:06.063Z,5.20
2019-05-13T01:52:06.053Z,5.23
2019-05-13T01:53:06.069Z,5.23
2019-05-13T01:54:06.031Z,5.20
2019-05-13T01:55:06.021Z,5.20
2019-05-13T01:56:06.011Z,5.22
2019-05-13T01:57:06.000Z,5.13
2019-05-13T01:58:05.989Z,5.17
2019-05-13T01:59:06.008Z,5.09
2019-05-13T02:00:05.969Z,5.10
2019-05-13T02:01:05.958Z,5.12
2019-05-13T02:02:05.959Z,5.05
2019-05-13T02:03:05.938Z,5.02
2019-05-13T02:04:05.927Z,4.92
2019-05-13T02:05:05.941Z,4.96
2019-05-13T02:06:05.907Z,4.98
2019-05-13T02:07:05.917Z,4.88
2019-05-13T02:08:05.886Z,4.92
2019-05-13T02:09:05.875Z,4.88
2019-05-13T02:10:05.862Z,4.80
2019-05-13T02:11:05.879Z,4.79
2019-05-13T02:12:05.842Z,4.88
2019-05-13T02:13:05.830Z,4.73
2019-05-13T02:14:05.877Z,4.67
2019-05-13T02:15:05.814Z,4.54
2019-05-13T02:16:05.801Z,4.59
2019-05-13T02:17:05.809Z,4.55
2019-05-13T02:18:05.776Z,4.46
2019-05-13T02:19:05.766Z,4.47
2019-05-13T02:20:05.759Z,4.52
2019-05-13T02:21:05.804Z,4.51
2019-05-13T02:22:05.733Z,4.50
2019-05-13T02:23:05.747Z,4.46
2019-05-13T02:24:05.713Z,4.44
2019-05-13T02:25:05.701Z,4.40
2019-05-13T02:26:05.691Z,4.36
2019-05-13T02:27:05.679Z,4.34
2019-05-13T02:28:08.919Z,4.37
2019-05-13T02:29:05.690Z,4.39
2019-05-13T02:30:06.021Z,4.39
2019-05-13T02:31:05.636Z,4.32
2019-05-13T02:32:05.629Z,4.29
2019-05-13T02:33:05.658Z,4.29
2019-05-13T02:34:05.605Z,4.28
2019-05-13T02:35:05.652Z,4.32
2019-05-13T02:36:05.589Z,4.25
2019-05-13T02:37:05.578Z,4.32
2019-05-13T02:38:19.706Z,4.26
2019-05-13T02:39:06.550Z,4.25
2019-05-13T02:40:05.545Z,4.29
2019-05-13T02:41:05.557Z,4.26
2019-05-13T02:42:05.520Z,4.25
2019-05-13T02:43:05.510Z,4.32
2019-05-13T02:44:05.497Z,4.28
2019-05-13T02:45:05.489Z,4.28
2019-05-13T02:46:05.478Z,4.25
2019-05-13T02:47:05.495Z,4.16
2019-05-13T02:48:05.503Z,4.14
2019-05-13T02:49:05.446Z,4.24
2019-05-13T02:50:05.511Z,4.19
2019-05-13T02:51:05.427Z,4.16
2019-05-13T02:52:05.447Z,4.19
2019-05-13T02:53:05.433Z,4.16
2019-05-13T02:54:05.394Z,4.10
2019-05-13T02:55:05.383Z,4.08
2019-05-13T02:56:05.373Z,4.08
2019-05-13T02:57:05.363Z,4.07
2019-05-13T02:58:05.355Z,3.90
2019-05-13T02:59:05.369Z,3.76
2019-05-13T03:00:05.330Z,3.76
2019-05-13T03:01:05.323Z,3.67
2019-05-13T03:02:05.322Z,3.68
2019-05-13T03:03:05.303Z,3.68
2019-05-13T03:04:05.288Z,3.70
2019-05-13T03:05:05.303Z,3.80
2019-05-13T03:06:05.268Z,3.70
2019-05-13T03:07:05.256Z,3.80
2019-05-13T03:08:05.247Z,3.75
2019-05-13T03:09:05.237Z,3.79
2019-05-13T03:10:05.227Z,3.75
2019-05-13T03:11:05.240Z,3.70
2019-05-13T03:12:05.211Z,3.65
2019-05-13T03:13:05.202Z,3.62
2019-05-13T03:14:05.185Z,3.57
2019-05-13T03:15:05.175Z,3.54
2019-05-13T03:16:05.164Z,3.52
2019-05-13T03:17:05.189Z,3.62
2019-05-13T03:18:05.144Z,3.64
2019-05-13T03:19:05.133Z,3.47
2019-05-13T03:20:05.122Z,3.46
2019-05-13T03:21:05.116Z,3.47
2019-05-13T03:22:05.102Z,3.49
2019-05-13T03:23:05.121Z,3.47
2019-05-13T03:24:05.083Z,3.40
2019-05-13T03:25:05.070Z,3.47
2019-05-13T03:26:05.067Z,3.33
2019-05-13T03:27:05.051Z,3.42
2019-05-13T03:28:05.041Z,3.54
2019-05-13T03:29:05.062Z,3.61
2019-05-13T03:30:05.133Z,3.54
2019-05-13T03:31:07.079Z,3.53
2019-05-13T03:32:07.244Z,3.44
2019-05-13T03:33:10.884Z,3.49
2019-05-13T03:34:07.321Z,3.34
2019-05-13T03:35:07.471Z,3.36
2019-05-13T03:36:07.278Z,3.36
2019-05-13T03:37:06.958Z,3.27
2019-05-13T03:38:04.935Z,3.24
2019-05-13T03:39:10.650Z,3.21
2019-05-13T03:40:05.921Z,3.23
2019-05-13T03:41:04.909Z,3.21
2019-05-13T03:42:04.891Z,3.23
2019-05-13T03:43:04.881Z,3.33
2019-05-13T03:44:04.871Z,3.44
2019-05-13T03:45:04.862Z,3.49
2019-05-13T03:46:04.861Z,3.39
2019-05-13T03:47:04.862Z,3.57
2019-05-13T03:48:04.835Z,3.52
2019-05-13T03:49:04.821Z,3.42
2019-05-13T03:50:04.803Z,3.43
2019-05-13T03:51:04.795Z,3.43
2019-05-13T03:52:04.819Z,3.33
2019-05-13T03:53:04.794Z,3.44
2019-05-13T03:54:04.761Z,3.43
2019-05-13T03:55:04.754Z,3.33
2019-05-13T03:56:04.740Z,3.31
2019-05-13T03:57:04.729Z,3.33
2019-05-13T03:58:04.742Z,3.34
2019-05-13T03:59:04.715Z,3.27
2019-05-13T04:00:04.702Z,3.34
2019-05-13T04:01:04.687Z,3.39
2019-05-13T04:02:04.677Z,3.49
2019-05-13T04:03:04.665Z,3.52
2019-05-13T04:04:04.674Z,3.60
2019-05-13T04:05:04.662Z,3.54
2019-05-13T04:06:04.633Z,3.68
2019-05-13T04:07:04.624Z,3.65
2019-05-13T04:08:04.615Z,3.62
2019-05-13T04:09:20.776Z,3.62
2019-05-13T04:10:05.602Z,3.72
2019-05-13T04:11:04.592Z,3.90
2019-05-13T04:12:04.580Z,3.94
2019-05-13T04:13:04.561Z,4.12
2019-05-13T04:14:04.557Z,4.26
2019-05-13T04:15:04.541Z,4.33
2019-05-13T04:16:04.609Z,4.50
2019-05-13T04:17:04.532Z,4.62
2019-05-13T04:18:04.508Z,4.79
2019-05-13T04:19:04.501Z,4.79
2019-05-13T04:20:04.487Z,4.89
2019-05-13T04:21:04.477Z,4.96
2019-05-13T04:22:04.479Z,5.16
2019-05-13T04:23:04.474Z,5.22
2019-05-13T04:24:04.528Z,5.38
2019-05-13T04:25:04.432Z,5.52
2019-05-13T04:26:04.424Z,5.59
2019-05-13T04:27:04.424Z,5.56
2019-05-13T04:28:04.413Z,5.68
2019-05-13T04:29:04.415Z,5.83
2019-05-13T04:30:04.381Z,5.91
2019-05-13T04:31:04.374Z,5.98
2019-05-13T04:32:04.361Z,6.13
2019-05-13T04:33:04.348Z,6.19
2019-05-13T04:34:04.377Z,6.36
2019-05-13T04:35:04.453Z,6.35
2019-05-13T04:36:04.320Z,6.46
2019-05-13T04:37:04.322Z,6.59
2019-05-13T04:38:09.020Z,6.66
2019-05-13T04:39:05.302Z,6.69
2019-05-13T04:40:04.315Z,6.79
2019-05-13T04:41:04.346Z,6.90
2019-05-13T04:42:04.254Z,6.95
2019-05-13T04:43:04.245Z,7.19
2019-05-13T04:44:04.240Z,7.29
2019-05-13T04:45:04.233Z,7.37
2019-05-13T04:46:04.210Z,7.52
2019-05-13T04:47:04.290Z,7.58
2019-05-13T04:48:04.191Z,7.77
2019-05-13T04:49:04.181Z,7.69
2019-05-13T04:50:04.180Z,7.60
2019-05-13T04:51:04.166Z,7.62
2019-05-13T04:52:04.217Z,7.56
2019-05-13T04:53:04.144Z,7.38
2019-05-13T04:54:04.123Z,7.29
2019-05-13T04:55:04.118Z,7.08
2019-05-13T04:56:04.105Z,7.08
2019-05-13T04:57:04.107Z,7.07
2019-05-13T04:58:04.086Z,6.94
2019-05-13T04:59:04.080Z,7.07
2019-05-13T05:00:04.639Z,6.98
2019-05-13T05:01:08.921Z,7.07
2019-05-13T05:02:05.449Z,7.20
2019-05-13T05:03:04.134Z,7.20
2019-05-13T05:04:13.919Z,7.38
2019-05-13T05:05:05.020Z,7.56
2019-05-13T05:06:03.997Z,7.69
2019-05-13T05:07:03.987Z,7.77
2019-05-13T05:08:03.986Z,7.75
2019-05-13T05:09:03.982Z,7.79
2019-05-13T05:10:17.364Z,7.77
2019-05-13T05:11:04.955Z,7.63
2019-05-13T05:12:03.933Z,7.56
2019-05-13T05:13:03.931Z,7.67
2019-05-13T05:14:03.928Z,7.63
2019-05-13T05:15:03.905Z,7.67
2019-05-13T05:16:03.892Z,7.66
2019-05-13T05:17:03.899Z,7.52
2019-05-13T05:18:03.868Z,7.60
2019-05-13T05:19:03.860Z,7.62
2019-05-13T05:20:04.151Z,7.74
2019-05-13T05:21:03.858Z,7.81
2019-05-13T05:22:03.865Z,7.94
2019-05-13T05:23:03.824Z,8.02
2019-05-13T05:24:03.802Z,8.03
2019-05-13T05:25:03.795Z,8.08
2019-05-13T05:26:03.793Z,8.08
2019-05-13T05:27:03.771Z,8.08
2019-05-13T05:28:03.767Z,8.10
2019-05-13T05:29:03.759Z,8.32
2019-05-13T05:30:03.739Z,8.36
2019-05-13T05:31:03.729Z,8.45
2019-05-13T05:32:03.729Z,8.51
2019-05-13T05:33:03.708Z,8.55
2019-05-13T05:34:06.628Z,8.69
2019-05-13T05:35:03.732Z,8.97
2019-05-13T05:36:03.690Z,9.13
2019-05-13T05:37:03.665Z,9.32
2019-05-13T05:38:03.675Z,9.45
2019-05-13T05:39:03.642Z,9.53
2019-05-13T05:40:03.632Z,9.75
2019-05-13T05:41:03.630Z,10.00
2019-05-13T05:42:03.610Z,10.09
2019-05-13T05:43:03.601Z,10.22
2019-05-13T05:44:03.608Z,10.42
2019-05-13T05:45:03.585Z,10.42
2019-05-13T05:46:03.573Z,10.53
2019-05-13T05:47:03.570Z,10.46
2019-05-13T05:48:03.545Z,10.74
2019-05-13T05:49:03.536Z,10.89
2019-05-13T05:50:03.536Z,11.06
2019-05-13T05:51:03.514Z,11.19
2019-05-13T05:52:03.510Z,11.29
2019-05-13T05:53:03.508Z,11.34
2019-05-13T05:54:03.491Z,11.28
2019-05-13T05:55:03.470Z,10.86
2019-05-13T05:56:03.471Z,10.56
2019-05-13T05:57:03.463Z,10.37
2019-05-13T05:58:03.438Z,10.58
2019-05-13T05:59:03.437Z,10.83
2019-05-13T06:00:03.417Z,10.86
2019-05-13T06:01:03.407Z,11.06
2019-05-13T06:02:03.416Z,11.10
2019-05-13T06:03:03.389Z,11.09
2019-05-13T06:04:03.374Z,11.20
2019-05-13T06:05:03.395Z,11.20
2019-05-13T06:06:03.352Z,11.19
2019-05-13T06:07:03.577Z,11.07
2019-05-13T06:08:03.341Z,11.09
2019-05-13T06:09:03.321Z,11.19
2019-05-13T06:10:03.311Z,11.39
2019-05-13T06:11:03.310Z,11.52
2019-05-13T06:12:03.295Z,11.57
2019-05-13T06:13:03.278Z,11.71
2019-05-13T06:14:03.279Z,11.57
2019-05-13T06:15:03.257Z,11.35
2019-05-13T06:16:03.245Z,11.16
2019-05-13T06:17:03.245Z,11.16
2019-05-13T06:18:03.246Z,11.16
2019-05-13T06:19:03.214Z,11.21
2019-05-13T06:20:04.314Z,11.25
2019-05-13T06:21:03.191Z,11.27
2019-05-13T06:22:03.180Z,11.09
2019-05-13T06:23:03.179Z,10.95
2019-05-13T06:24:03.177Z,11.50
2019-05-13T06:25:03.239Z,11.78
2019-05-13T06:26:03.148Z,12.15
2019-05-13T06:27:03.125Z,12.21
2019-05-13T06:28:03.115Z,12.23
2019-05-13T06:29:03.121Z,11.53
2019-05-13T06:30:03.093Z,10.86
2019-05-13T06:31:03.083Z,10.60
2019-05-13T06:32:17.703Z,10.55
2019-05-13T06:33:04.058Z,10.37
2019-05-13T06:34:03.049Z,10.10
2019-05-13T06:35:03.049Z,9.83
2019-05-13T06:36:03.032Z,9.78
2019-05-13T06:37:03.017Z,9.81
2019-05-13T06:38:03.017Z,9.83
2019-05-13T06:39:02.996Z,9.58
2019-05-13T06:40:02.985Z,9.63
2019-05-13T06:41:07.921Z,9.83
2019-05-13T06:42:03.963Z,9.61
2019-05-13T06:43:02.952Z,9.35
2019-05-13T06:44:02.953Z,9.64
2019-05-13T06:45:02.931Z,9.79
2019-05-13T06:46:02.921Z,9.94
2019-05-13T06:47:03.035Z,9.94
2019-05-13T06:48:02.899Z,10.01
2019-05-13T06:49:03.095Z,10.14
2019-05-13T06:50:03.483Z,10.19
2019-05-13T06:51:02.873Z,10.43
2019-05-13T06:52:02.858Z,10.52
2019-05-13T06:53:02.858Z,10.44
2019-05-13T06:54:02.835Z,10.39
2019-05-13T06:55:03.077Z,10.36
2019-05-13T06:56:02.824Z,10.30
2019-05-13T06:57:05.015Z,10.17
2019-05-13T06:58:02.793Z,10.21
2019-05-13T06:59:02.793Z,10.33
2019-05-13T07:00:02.775Z,10.43
2019-05-13T07:01:04.057Z,10.52
2019-05-13T07:02:02.774Z,10.62
2019-05-13T07:03:02.739Z,10.60
2019-05-13T07:04:02.729Z,10.42
2019-05-13T07:05:02.732Z,10.52
2019-05-13T07:06:02.715Z,10.43
2019-05-13T07:07:12.370Z,10.51
2019-05-13T07:08:03.698Z,10.63
2019-05-13T07:09:02.678Z,10.53
2019-05-13T07:10:02.812Z,10.76
2019-05-13T07:11:17.254Z,10.78
2019-05-13T07:12:03.770Z,10.71
2019-05-13T07:13:02.633Z,10.66
2019-05-13T07:14:02.769Z,10.74
2019-05-13T07:15:02.692Z,10.74
2019-05-13T07:16:02.598Z,10.88
2019-05-13T07:17:02.598Z,10.91
2019-05-13T07:18:02.578Z,11.06
2019-05-13T07:19:02.782Z,11.13
2019-05-13T07:20:02.597Z,11.19
2019-05-13T07:21:02.544Z,11.46
2019-05-13T07:22:03.188Z,11.34
2019-05-13T07:23:02.533Z,11.52
2019-05-13T07:24:02.606Z,11.47
2019-05-13T07:25:02.799Z,11.46
2019-05-13T07:26:02.502Z,11.50
2019-05-13T07:27:02.503Z,11.46
2019-05-13T07:28:02.478Z,11.43
2019-05-13T07:29:03.703Z,11.44
2019-05-13T07:30:02.521Z,11.43
2019-05-13T07:31:02.471Z,11.43
2019-05-13T07:32:02.458Z,11.32
2019-05-13T07:33:02.415Z,11.67
2019-05-13T07:34:02.516Z,11.99
2019-05-13T07:35:04.001Z,12.27
2019-05-13T07:36:03.360Z,12.74
2019-05-13T07:37:02.415Z,12.81
2019-05-13T07:38:02.372Z,13.03
2019-05-13T07:39:02.349Z,13.02
2019-05-13T07:40:02.787Z,12.96
2019-05-13T07:41:02.342Z,12.89
2019-05-13T07:42:05.523Z,12.82
2019-05-13T07:43:02.306Z,13.21
2019-05-13T07:44:02.686Z,13.44
2019-05-13T07:45:02.291Z,13.73
2019-05-13T07:46:02.381Z,13.83
2019-05-13T07:47:03.694Z,13.84
2019-05-13T07:48:02.252Z,13.54
2019-05-13T07:49:02.369Z,13.61
2019-05-13T07:50:02.715Z,13.79
2019-05-13T07:51:04.551Z,13.76
2019-05-13T07:52:02.209Z,13.76
2019-05-13T07:53:02.429Z,13.27
2019-05-13T07:54:02.488Z,12.88
2019-05-13T07:55:02.185Z,12.92
2019-05-13T07:56:02.301Z,13.17
2019-05-13T07:57:02.413Z,13.24
2019-05-13T07:58:02.279Z,13.49
2019-05-13T07:59:02.201Z,13.83
2019-05-13T08:00:02.328Z,13.59
2019-05-13T08:01:02.535Z,13.07
2019-05-13T08:02:02.732Z,12.85
2019-05-13T08:03:02.093Z,12.60
2019-05-13T08:04:02.372Z,12.54
2019-05-13T08:05:02.603Z,12.82
2019-05-13T08:06:02.278Z,13.18
2019-05-13T08:07:02.499Z,13.54
2019-05-13T08:08:02.365Z,14.04
2019-05-13T08:09:02.126Z,14.37
2019-05-13T08:10:03.480Z,14.64
2019-05-13T08:11:02.017Z,14.88
2019-05-13T08:12:09.184Z,14.99
2019-05-13T08:13:02.993Z,14.86
2019-05-13T08:14:02.007Z,14.80
2019-05-13T08:15:03.134Z,14.69
2019-05-13T08:16:02.271Z,14.67
2019-05-13T08:17:02.860Z,14.52
2019-05-13T08:18:02.241Z,14.50
2019-05-13T08:19:02.088Z,14.64
2019-05-13T08:20:02.918Z,14.57
2019-05-13T08:21:02.391Z,14.42
2019-05-13T08:22:02.451Z,13.84
2019-05-13T08:23:02.689Z,13.79
2019-05-13T08:24:02.647Z,13.98
2019-05-13T08:25:03.328Z,13.94
2019-05-13T08:26:02.323Z,13.27
2019-05-13T08:27:02.450Z,13.14
2019-05-13T08:28:02.196Z,13.29
2019-05-13T08:29:05.566Z,13.54
2019-05-13T08:30:02.123Z,13.51
2019-05-13T08:31:02.249Z,13.22
2019-05-13T08:32:02.816Z,13.20
2019-05-13T08:33:02.009Z,13.25
2019-05-13T08:34:02.628Z,13.30
2019-05-13T08:35:08.626Z,13.49
2019-05-13T08:36:02.747Z,13.65
2019-05-13T08:37:02.993Z,13.52
2019-05-13T08:38:01.717Z,13.15
2019-05-13T08:39:02.710Z,12.78
2019-05-13T08:40:01.858Z,12.51
2019-05-13T08:41:02.088Z,12.62
2019-05-13T08:42:12.895Z,12.78
2019-05-13T08:43:02.660Z,12.92
2019-05-13T08:44:01.945Z,13.17
2019-05-13T08:45:02.174Z,13.33
2019-05-13T08:46:02.078Z,13.70
2019-05-13T08:47:02.962Z,14.01
2019-05-13T08:48:02.141Z,14.25
2019-05-13T08:49:03.818Z,14.06
2019-05-13T08:50:04.227Z,14.04
2019-05-13T08:51:03.141Z,14.17
2019-05-13T08:52:01.974Z,14.35
2019-05-13T08:53:01.918Z,14.68
2019-05-13T08:54:02.439Z,14.67
2019-05-13T08:55:02.186Z,14.43
2019-05-13T08:56:01.844Z,14.47
2019-05-13T08:57:02.900Z,14.43
2019-05-13T08:58:02.027Z,13.95
2019-05-13T08:59:01.497Z,13.81
2019-05-13T09:00:04.899Z,13.73
2019-05-13T09:01:02.287Z,13.51
2019-05-13T09:02:03.090Z,13.40
2019-05-13T09:03:02.879Z,13.29
2019-05-13T09:04:02.558Z,13.09
2019-05-13T09:05:02.349Z,12.87
2019-05-13T09:06:02.759Z,12.89
2019-05-13T09:07:02.456Z,13.17
2019-05-13T09:08:01.407Z,13.49
2019-05-13T09:09:02.429Z,13.81
2019-05-13T09:10:02.056Z,13.76
2019-05-13T09:11:01.769Z,13.69
2019-05-13T09:12:02.588Z,13.80
2019-05-13T09:13:01.957Z,13.98
2019-05-13T09:14:02.296Z,14.24
2019-05-13T09:15:03.232Z,14.46
2019-05-13T09:16:02.382Z,14.72
2019-05-13T09:17:01.943Z,14.49
2019-05-13T09:18:02.353Z,14.16
2019-05-13T09:19:03.808Z,14.20
2019-05-13T09:20:02.758Z,14.37
2019-05-13T09:21:02.512Z,14.68
2019-05-13T09:22:02.993Z,14.60
2019-05-13T09:23:02.077Z,14.20
2019-05-13T09:24:02.172Z,13.80
2019-05-13T09:25:02.188Z,13.71
2019-05-13T09:26:02.639Z,13.47
2019-05-13T09:27:02.146Z,13.51
2019-05-13T09:28:02.556Z,13.52
2019-05-13T09:29:01.545Z,13.69
2019-05-13T09:30:02.713Z,13.54
2019-05-13T09:31:02.030Z,13.27
2019-05-13T09:32:03.926Z,13.47
2019-05-13T09:33:02.021Z,13.81
2019-05-13T09:34:01.529Z,13.84
2019-05-13T09:35:03.009Z,13.84
2019-05-13T09:36:02.190Z,13.79
2019-05-13T09:37:02.764Z,13.70
2019-05-13T09:38:03.231Z,13.77
2019-05-13T09:39:02.061Z,13.83
2019-05-13T09:40:02.348Z,13.87
2019-05-13T09:41:01.927Z,13.79
2019-05-13T09:42:02.666Z,13.62
2019-05-13T09:43:02.583Z,13.70
2019-05-13T09:44:01.987Z,13.94
2019-05-13T09:45:02.195Z,14.35
2019-05-13T09:46:01.798Z,14.49
2019-05-13T09:47:02.490Z,14.38
2019-05-13T09:48:01.655Z,14.04
2019-05-13T09:49:14.841Z,13.87
2019-05-13T09:50:04.406Z,14.01
2019-05-13T09:51:02.411Z,14.19
2019-05-13T09:52:01.654Z,14.37
2019-05-13T09:53:02.776Z,14.60
2019-05-13T09:54:01.454Z,14.94
2019-05-13T09:55:03.154Z,15.05
2019-05-13T09:56:02.413Z,15.27
2019-05-13T09:58:02.551Z,15.36
2019-05-13T09:59:01.821Z,15.15
2019-05-13T10:00:01.650Z,14.95
2019-05-13T10:01:00.826Z,14.81
2019-05-13T10:02:03.180Z,14.93
2019-05-13T10:03:02.136Z,15.05
2019-05-13T10:04:03.074Z,15.28
2019-05-13T10:05:02.254Z,15.26
2019-05-13T10:06:02.382Z,15.01
2019-05-13T10:07:02.238Z,14.60
2019-05-13T10:08:02.406Z,14.44
2019-05-13T10:09:02.209Z,14.28
2019-05-13T10:10:01.527Z,14.20
2019-05-13T10:11:01.686Z,13.99
2019-05-13T10:12:03.320Z,13.80
2019-05-13T10:14:02.227Z,13.98
2019-05-13T10:15:02.079Z,13.83
2019-05-13T10:16:00.668Z,13.79
2019-05-13T10:17:05.400Z,13.96
2019-05-13T10:18:01.900Z,14.02
2019-05-13T10:19:01.645Z,14.14
2019-05-13T10:20:00.633Z,14.37
2019-05-13T10:21:00.612Z,14.31
2019-05-13T10:22:00.601Z,14.34
2019-05-13T10:23:01.666Z,14.50
2019-05-13T10:24:00.618Z,14.61
2019-05-13T10:25:02.603Z,14.67
2019-05-13T10:26:03.328Z,14.88
2019-05-13T10:27:02.367Z,14.93
2019-05-13T10:28:02.051Z,14.99
2019-05-13T10:29:00.544Z,14.91
2019-05-13T10:30:00.526Z,15.11
2019-05-13T10:31:00.513Z,15.15
2019-05-13T10:32:02.815Z,14.95
2019-05-13T10:33:02.897Z,14.83
2019-05-13T10:34:02.350Z,14.78
2019-05-13T10:35:03.097Z,14.90
2019-05-13T10:36:03.163Z,15.02
2019-05-13T10:37:02.211Z,15.24
2019-05-13T10:38:03.752Z,15.31
2019-05-13T10:39:01.394Z,15.27
2019-05-13T10:40:02.283Z,15.28
2019-05-13T10:41:02.879Z,15.39
2019-05-13T10:42:03.171Z,15.49
2019-05-13T10:43:01.863Z,15.51
2019-05-13T10:44:02.971Z,15.70
2019-05-13T10:45:02.474Z,15.42
2019-05-13T10:46:02.565Z,15.21
2019-05-13T10:47:02.489Z,15.13
2019-05-13T10:48:02.752Z,14.71
2019-05-13T10:49:01.901Z,14.52
2019-05-13T10:50:02.762Z,14.42
2019-05-13T10:51:02.237Z,14.60
2019-05-13T10:52:02.828Z,14.68
2019-05-13T10:53:02.718Z,14.56
2019-05-13T10:54:00.302Z,14.32
2019-05-13T10:55:02.007Z,14.39
2019-05-13T10:56:03.158Z,14.53
2019-05-13T10:57:03.567Z,14.57
2019-05-13T10:58:02.439Z,14.56
2019-05-13T10:59:02.507Z,14.37
2019-05-13T11:00:03.132Z,14.31
2019-05-13T11:01:02.836Z,14.24
2019-05-13T11:02:02.238Z,14.17
2019-05-13T11:03:00.163Z,14.29
2019-05-13T11:04:02.581Z,14.38
2019-05-13T11:05:02.970Z,14.42
2019-05-13T11:06:00.155Z,14.50
2019-05-13T11:07:02.406Z,14.38
2019-05-13T11:08:02.080Z,14.38
2019-05-13T11:09:02.024Z,14.35
2019-05-13T11:10:00.109Z,14.57
2019-05-13T11:11:02.070Z,14.65
2019-05-13T11:12:02.008Z,14.74
2019-05-13T11:13:01.528Z,14.90
2019-05-13T11:14:10.241Z,15.08
2019-05-13T11:15:02.518Z,15.13
2019-05-13T11:16:01.938Z,15.17
2019-05-13T11:17:01.625Z,15.06
2019-05-13T11:18:02.862Z,14.99
2019-05-13T11:19:02.596Z,15.01
2019-05-13T11:19:59.982Z,15.02
2019-05-13T11:21:01.946Z,15.02
2019-05-13T11:22:02.513Z,14.99
2019-05-13T11:23:01.920Z,15.05
2019-05-13T11:24:02.748Z,15.02
2019-05-13T11:25:01.704Z,15.28
2019-05-13T11:26:02.777Z,15.26
2019-05-13T11:27:02.552Z,15.17
2019-05-13T11:28:01.660Z,15.06
2019-05-13T11:29:02.631Z,15.05
2019-05-13T11:30:04.782Z,14.98
2019-05-13T11:31:03.078Z,14.62
2019-05-13T11:32:02.454Z,14.62
2019-05-13T11:33:02.240Z,14.61
2019-05-13T11:34:02.034Z,14.61
2019-05-13T11:35:01.867Z,14.65
2019-05-13T11:35:59.817Z,14.83
2019-05-13T11:37:03.307Z,14.74
2019-05-13T11:38:01.612Z,14.72
2019-05-13T11:39:02.406Z,14.84
2019-05-13T11:40:00.011Z,14.94
2019-05-13T11:41:02.252Z,15.23
2019-05-13T11:42:02.241Z,15.33
2019-05-13T11:43:01.723Z,15.45
2019-05-13T11:44:12.700Z,15.75
2019-05-13T11:45:00.710Z,15.89
2019-05-13T11:46:02.259Z,15.86
2019-05-13T11:47:02.300Z,15.89
2019-05-13T11:48:02.338Z,15.84
2019-05-13T11:49:02.254Z,15.60
2019-05-13T11:50:02.073Z,15.59
2019-05-13T11:50:59.648Z,15.45
2019-05-13T11:52:01.893Z,15.41
2019-05-13T11:53:03.259Z,15.33
2019-05-13T11:54:01.814Z,15.35
2019-05-13T11:55:02.524Z,15.24
2019-05-13T11:56:03.244Z,15.36
2019-05-13T11:57:02.714Z,15.42
2019-05-13T11:58:02.875Z,15.30
2019-05-13T11:58:59.578Z,15.20
2019-05-13T12:00:02.226Z,15.39
2019-05-13T12:01:01.844Z,15.52
2019-05-13T12:02:03.954Z,15.84
2019-05-13T12:03:03.577Z,16.03
2019-05-13T12:04:02.529Z,15.82
2019-05-13T12:05:03.266Z,15.57
2019-05-13T12:06:02.222Z,15.49
2019-05-13T12:07:02.620Z,15.78
2019-05-13T12:07:59.464Z,15.93
2019-05-13T12:09:02.784Z,16.06
2019-05-13T12:09:59.439Z,16.09
2019-05-13T12:10:59.445Z,16.25
2019-05-13T12:12:02.851Z,16.25
2019-05-13T12:12:59.407Z,16.22
2019-05-13T12:13:59.395Z,16.03
2019-05-13T12:15:22.522Z,15.93
2019-05-13T12:16:03.586Z,16.00
2019-05-13T12:17:02.094Z,16.11
2019-05-13T12:17:59.448Z,16.35
2019-05-13T12:19:03.096Z,16.27
2019-05-13T12:19:59.331Z,16.25
2019-05-13T12:21:02.886Z,16.20
2019-05-13T12:22:02.313Z,16.14
2019-05-13T12:23:03.176Z,16.33
2019-05-13T12:24:07.095Z,16.33
2019-05-13T12:25:02.124Z,16.00
2019-05-13T12:26:00.067Z,16.03
2019-05-13T12:26:59.291Z,16.00
2019-05-13T12:28:03.140Z,16.14
2019-05-13T12:29:02.544Z,16.06
2019-05-13T12:30:02.763Z,16.15
2019-05-13T12:31:02.963Z,16.16
2019-05-13T12:31:59.201Z,16.34
2019-05-13T12:32:59.234Z,16.48
2019-05-13T12:34:00.136Z,16.44
2019-05-13T12:34:59.212Z,16.26
2019-05-13T12:36:01.790Z,16.27
2019-05-13T12:37:02.866Z,16.31
2019-05-13T12:37:59.136Z,16.30
2019-05-13T12:38:59.126Z,16.31
2019-05-13T12:39:59.180Z,16.12
2019-05-13T12:40:59.114Z,16.07
2019-05-13T12:42:03.102Z,15.93
2019-05-13T12:43:01.331Z,16.00
2019-05-13T12:44:01.612Z,15.78
2019-05-13T12:45:08.410Z,15.94
2019-05-13T12:46:02.405Z,16.14
2019-05-13T12:46:59.051Z,16.22
2019-05-13T12:48:02.947Z,16.42
2019-05-13T12:48:59.018Z,16.50
2019-05-13T12:49:59.006Z,16.67
2019-05-13T12:50:59.173Z,16.70
2019-05-13T12:52:01.729Z,16.78
2019-05-13T12:53:02.552Z,16.92
2019-05-13T12:53:58.963Z,16.93
2019-05-13T12:55:03.023Z,17.07
2019-05-13T12:56:02.842Z,16.55
2019-05-13T12:56:58.932Z,16.12
2019-05-13T12:58:02.457Z,15.85
2019-05-13T12:58:58.935Z,15.78
2019-05-13T12:59:58.899Z,15.63
2019-05-13T13:01:01.293Z,15.60
2019-05-13T13:01:58.878Z,15.61
2019-05-13T13:02:58.867Z,15.66
2019-05-13T13:03:59.920Z,15.74
2019-05-13T13:05:14.066Z,15.88
2019-05-13T13:06:22.543Z,15.84